Time;durP1;ratioP1;P1;durP2;ratioP2;P2;SDS_P1;SDS_P2;PMS_P1;PMS_P2;Temp;Humidity;BMP_temperature;BMP_pressure;BME280_temperature;BME280_humidity;BME280_pressure;Samples;Min_cycle;Max_cycle;Signal;HPM_P1;HPM_P2
2022/05/15 00:01:44;;;;;;;3.78;1.88;;;13.90;60.80;;;;;;5049282;28;20051;-71
2022/05/15 00:04:09;;;;;;;1.77;1.42;;;13.90;61.10;;;;;;5070273;28;20032;-71
2022/05/15 00:06:35;;;;;;;2.92;1.48;;;13.90;61.20;;;;;;5043954;28;20508;-71
2022/05/15 00:09:01;;;;;;;2.75;1.55;;;13.90;61.30;;;;;;5018358;28;20489;-71
2022/05/15 00:11:26;;;;;;;4.13;1.85;;;13.80;61.30;;;;;;5054560;28;20028;-71
2022/05/15 00:13:52;;;;;;;4.82;1.73;;;13.80;61.40;;;;;;5059294;28;20036;-71
2022/05/15 00:16:17;;;;;;;6.68;2.13;;;13.80;61.40;;;;;;5058373;28;20090;-71
2022/05/15 00:18:43;;;;;;;2.33;1.73;;;13.80;61.40;;;;;;5030375;28;20044;-71
2022/05/15 00:21:09;;;;;;;3.13;1.80;;;13.80;61.60;;;;;;5057769;28;20032;-71
2022/05/15 00:23:34;;;;;;;2.72;1.80;;;13.70;61.70;;;;;;5063571;28;20063;-72
2022/05/15 00:26:00;;;;;;;4.95;1.88;;;13.70;61.90;;;;;;5040375;28;20037;-71
2022/05/15 00:28:26;;;;;;;3.45;1.60;;;13.60;62.20;;;;;;5058194;28;20435;-73
2022/05/15 00:30:51;;;;;;;2.75;2.00;;;13.50;62.30;;;;;;5050394;28;20036;-71
2022/05/15 00:33:17;;;;;;;4.55;1.52;;;13.40;62.40;;;;;;5053143;28;20048;-72
2022/05/15 00:35:43;;;;;;;2.97;1.60;;;13.40;62.70;;;;;;5043846;28;20044;-71
2022/05/15 00:38:09;;;;;;;4.32;1.70;;;13.40;62.80;;;;;;5060602;28;20522;-71
2022/05/15 00:40:35;;;;;;;1.70;1.55;;;13.30;62.70;;;;;;5053055;28;20123;-71
2022/05/15 00:43:00;;;;;;;4.13;1.63;;;13.30;63.00;;;;;;5039830;28;20124;-72
2022/05/15 00:45:26;;;;;;;3.92;1.80;;;13.30;63.10;;;;;;5053529;28;20123;-71
2022/05/15 00:47:52;;;;;;;2.15;1.48;;;13.30;63.00;;;;;;5046992;28;20032;-71
2022/05/15 00:50:24;;;;;;;2.72;1.50;;;13.30;63.00;;;;;;5061030;28;20052;-71
2022/05/15 00:52:51;;;;;;;6.53;1.73;;;13.20;63.20;;;;;;5037094;28;20043;-72
2022/05/15 00:55:20;;;;;;;2.13;1.80;;;13.20;63.20;;;;;;5042854;28;20104;-73
2022/05/15 00:57:58;;;;;;;3.03;1.48;;;13.20;63.50;;;;;;5062196;28;20065;-71
2022/05/15 01:00:26;;;;;;;1.80;1.50;;;13.10;63.80;;;;;;5040165;28;20409;-72
2022/05/15 01:03:08;;;;;;;1.90;1.63;;;13.10;63.60;;;;;;5031642;28;20999;-71
2022/05/15 01:05:36;;;;;;;2.75;1.80;;;13.10;63.90;;;;;;5041788;28;20468;-71
2022/05/15 01:08:01;;;;;;;4.97;1.92;;;13.10;63.70;;;;;;5011680;28;20037;-70
2022/05/15 01:10:27;;;;;;;6.82;1.60;;;13.10;63.80;;;;;;5046848;28;20029;-71
2022/05/15 01:12:53;;;;;;;2.75;1.52;;;13.10;63.80;;;;;;5066934;28;20052;-71
2022/05/15 01:15:22;;;;;;;4.95;1.63;;;13.10;63.90;;;;;;5040851;28;21097;-71
2022/05/15 01:17:48;;;;;;;3.65;1.65;;;13.00;64.00;;;;;;5058308;28;20032;-71
2022/05/15 01:20:14;;;;;;;2.47;1.40;;;13.00;64.00;;;;;;5061000;28;20483;-71
2022/05/15 01:22:40;;;;;;;4.25;1.70;;;12.90;64.00;;;;;;5061735;28;20032;-72
2022/05/15 01:25:35;;;;;;;3.70;1.60;;;12.90;64.20;;;;;;5056521;28;20492;-71
2022/05/15 01:28:05;;;;;;;6.13;2.70;;;12.90;64.40;;;;;;5056192;28;20097;-71
2022/05/15 01:30:31;;;;;;;5.38;1.80;;;12.80;64.30;;;;;;5056849;28;20032;-71
2022/05/15 01:32:57;;;;;;;4.90;2.15;;;12.80;64.40;;;;;;5040951;28;20105;-71
2022/05/15 01:35:23;;;;;;;3.65;1.65;;;12.80;64.50;;;;;;5058253;28;21084;-72
2022/05/15 01:37:49;;;;;;;5.90;1.92;;;12.80;64.50;;;;;;5044887;28;20059;-71
2022/05/15 01:40:14;;;;;;;3.15;1.45;;;12.70;64.60;;;;;;5058649;28;20112;-71
2022/05/15 01:42:40;;;;;;;3.75;1.42;;;12.70;64.70;;;;;;5059397;28;20035;-71
2022/05/15 01:45:06;;;;;;;3.17;1.65;;;12.70;64.70;;;;;;5044801;28;20056;-71
2022/05/15 01:47:32;;;;;;;3.65;1.67;;;12.70;64.80;;;;;;5055562;28;20040;-72
2022/05/15 01:49:57;;;;;;;7.78;1.83;;;12.70;64.90;;;;;;5026681;28;20834;-71
2022/05/15 01:52:23;;;;;;;1.95;1.50;;;12.70;65.00;;;;;;5036558;28;20036;-71
2022/05/15 01:54:48;;;;;;;5.65;1.90;;;12.70;65.00;;;;;;5040793;28;20769;-71
2022/05/15 01:57:14;;;;;;;3.70;1.55;;;12.70;65.10;;;;;;5050308;28;20436;-72
2022/05/15 01:59:39;;;;;;;2.97;1.75;;;12.60;65.10;;;;;;5071417;28;20039;-71
2022/05/15 02:02:06;;;;;;;4.88;1.98;;;12.60;65.90;;;;;;5047697;28;20195;-71
2022/05/15 02:04:31;;;;;;;4.90;2.22;;;12.60;65.40;;;;;;5057239;28;20043;-71
2022/05/15 02:06:57;;;;;;;4.22;1.98;;;12.50;65.40;;;;;;5062261;28;20394;-71
2022/05/15 02:09:22;;;;;;;7.13;2.00;;;12.50;65.40;;;;;;5050003;28;20046;-72
2022/05/15 02:11:48;;;;;;;4.57;2.33;;;12.40;65.60;;;;;;5038825;28;20035;-71
2022/05/15 02:14:13;;;;;;;3.92;2.05;;;12.40;65.70;;;;;;5057671;28;20031;-73
2022/05/15 02:16:39;;;;;;;3.88;1.95;;;12.40;65.80;;;;;;5035061;28;20063;-71
2022/05/15 02:19:06;;;;;;;2.88;2.03;;;12.30;65.90;;;;;;5059960;28;20111;-72
2022/05/15 02:21:32;;;;;;;2.83;1.80;;;12.30;66.00;;;;;;5057246;28;20063;-71
2022/05/15 02:23:57;;;;;;;2.35;1.90;;;12.20;66.10;;;;;;5054820;28;20137;-71
2022/05/15 02:26:23;;;;;;;3.60;2.20;;;12.20;66.20;;;;;;5058340;28;20029;-72
2022/05/15 02:28:49;;;;;;;2.70;1.83;;;12.20;66.20;;;;;;5056617;28;20123;-71
2022/05/15 02:31:15;;;;;;;9.15;2.03;;;12.20;66.40;;;;;;5028175;28;20050;-71
2022/05/15 02:33:41;;;;;;;3.25;1.80;;;12.20;66.50;;;;;;5072547;28;20478;-73
2022/05/15 02:36:07;;;;;;;3.33;1.70;;;12.20;66.50;;;;;;5043789;28;20677;-71
2022/05/15 02:38:32;;;;;;;2.25;1.70;;;12.10;66.60;;;;;;5049932;28;20036;-72
2022/05/15 02:40:58;;;;;;;2.95;1.77;;;12.10;66.60;;;;;;5058723;28;20032;-71
2022/05/15 02:43:24;;;;;;;3.00;1.83;;;12.10;66.70;;;;;;5026275;28;20383;-71
2022/05/15 02:45:49;;;;;;;4.93;1.98;;;12.10;66.80;;;;;;5061146;28;20054;-73
2022/05/15 02:51:05;;;;;;;4.82;2.22;;;12.10;67.00;;;;;;5072162;28;20090;-71
2022/05/15 02:53:35;;;;;;;2.50;1.55;;;12.00;66.80;;;;;;5061145;28;20044;-72
2022/05/15 02:56:02;;;;;;;4.43;1.60;;;12.00;67.00;;;;;;5026381;28;20036;-71
2022/05/15 02:58:28;;;;;;;4.80;2.17;;;12.00;67.00;;;;;;5054194;28;20056;-72
2022/05/15 03:00:55;;;;;;;6.50;2.00;;;12.00;67.00;;;;;;5045902;28;20063;-71
2022/05/15 03:03:21;;;;;;;3.47;2.60;;;12.00;67.00;;;;;;5057232;28;20517;-71
2022/05/15 03:05:46;;;;;;;3.45;1.88;;;11.90;67.00;;;;;;5044809;28;20032;-71
2022/05/15 03:08:12;;;;;;;3.45;1.77;;;11.90;67.20;;;;;;5047762;28;20040;-71
2022/05/15 03:10:38;;;;;;;4.55;2.15;;;11.80;67.20;;;;;;5070678;28;20028;-72
2022/05/15 03:13:03;;;;;;;2.65;2.00;;;11.80;67.50;;;;;;5057679;28;20051;-72
2022/05/15 03:15:29;;;;;;;2.88;1.90;;;11.80;67.50;;;;;;5058229;28;20032;-71
2022/05/15 03:17:54;;;;;;;3.08;1.98;;;11.80;67.60;;;;;;5004389;28;20036;-72
2022/05/15 03:20:20;;;;;;;6.32;2.10;;;11.80;67.70;;;;;;5067729;28;20044;-71
2022/05/15 03:22:45;;;;;;;6.72;2.38;;;11.70;67.60;;;;;;5057010;28;20089;-71
2022/05/15 03:25:11;;;;;;;2.70;1.80;;;11.70;67.70;;;;;;5043189;28;20574;-71
2022/05/15 03:27:36;;;;;;;3.53;2.20;;;11.70;67.80;;;;;;5050619;28;20476;-71
2022/05/15 03:30:04;;;;;;;3.50;2.17;;;11.70;67.90;;;;;;5064587;28;20028;-71
2022/05/15 03:32:30;;;;;;;3.40;2.13;;;11.70;67.90;;;;;;5062827;28;20028;-70
2022/05/15 03:34:55;;;;;;;2.75;2.10;;;11.70;67.90;;;;;;5076046;28;21942;-71
2022/05/15 03:37:21;;;;;;;6.15;2.33;;;11.70;68.00;;;;;;5077757;28;20032;-71
2022/05/15 03:39:46;;;;;;;2.50;2.08;;;11.70;67.90;;;;;;5027774;28;20032;-71
2022/05/15 03:42:12;;;;;;;3.53;2.00;;;11.70;68.10;;;;;;5060758;28;20453;-71
2022/05/15 03:44:37;;;;;;;3.00;2.35;;;11.60;68.00;;;;;;5030402;28;20024;-71
2022/05/15 03:47:04;;;;;;;3.50;2.25;;;11.60;68.20;;;;;;5066704;28;20864;-71
2022/05/15 03:49:30;;;;;;;4.30;2.40;;;11.60;68.20;;;;;;5057994;28;20029;-71
2022/05/15 03:51:56;;;;;;;1.83;1.73;;;11.60;68.20;;;;;;5075942;28;20028;-73
2022/05/15 03:54:21;;;;;;;2.13;1.95;;;11.50;68.40;;;;;;5048721;28;20036;-71
2022/05/15 03:56:49;;;;;;;3.75;2.17;;;11.50;68.50;;;;;;5045161;28;20032;-71
2022/05/15 03:59:15;;;;;;;4.43;2.30;;;11.40;68.40;;;;;;5059057;28;20050;-71
2022/05/15 04:01:41;;;;;;;2.88;2.25;;;11.40;68.70;;;;;;5052526;28;20101;-71
2022/05/15 04:04:07;;;;;;;6.05;2.40;;;11.40;68.70;;;;;;5018591;28;20135;-71
2022/05/15 04:06:32;;;;;;;4.03;1.85;;;11.40;68.80;;;;;;5057433;28;20052;-71
2022/05/15 04:08:58;;;;;;;2.78;2.58;;;11.40;68.90;;;;;;5046686;28;20032;-71
2022/05/15 04:11:23;;;;;;;4.03;2.15;;;11.40;68.90;;;;;;5055247;28;20039;-70
2022/05/15 04:13:49;;;;;;;4.40;3.03;;;11.40;68.90;;;;;;5057866;28;20035;-73
2022/05/15 04:16:14;;;;;;;5.63;2.20;;;11.40;69.00;;;;;;5038461;28;20035;-70
2022/05/15 04:18:40;;;;;;;2.75;2.42;;;11.40;69.00;;;;;;5027196;28;20036;-71
2022/05/15 04:21:06;;;;;;;2.85;2.45;;;11.40;69.10;;;;;;5059248;28;20127;-71
2022/05/15 04:23:31;;;;;;;3.05;2.17;;;11.30;69.20;;;;;;5061200;28;20703;-70
2022/05/15 04:25:57;;;;;;;2.55;2.15;;;11.30;69.30;;;;;;5046254;28;20040;-70
2022/05/15 04:28:23;;;;;;;7.85;2.35;;;11.40;69.40;;;;;;5045017;28;20277;-71
2022/05/15 04:30:48;;;;;;;4.78;2.50;;;11.40;69.50;;;;;;5055140;28;20494;-71
2022/05/15 04:33:14;;;;;;;3.88;2.13;;;11.40;69.40;;;;;;5057960;28;20564;-71
2022/05/15 04:35:39;;;;;;;4.78;2.45;;;11.40;69.50;;;;;;5046341;28;20529;-71
2022/05/15 04:38:07;;;;;;;4.30;2.28;;;11.40;69.50;;;;;;5032536;28;20037;-71
2022/05/15 04:40:33;;;;;;;5.43;2.40;;;11.40;69.50;;;;;;5052953;28;20036;-71
2022/05/15 04:42:58;;;;;;;3.40;2.70;;;11.50;69.50;;;;;;5039975;28;20445;-70
2022/05/15 04:45:24;;;;;;;4.22;2.55;;;11.50;69.60;;;;;;5061096;28;20668;-74
2022/05/15 04:47:49;;;;;;;3.35;2.00;;;11.50;69.70;;;;;;5063947;28;20923;-70
2022/05/15 04:50:15;;;;;;;4.47;2.42;;;11.50;69.70;;;;;;5043125;28;20043;-70
2022/05/15 04:52:41;;;;;;;3.00;2.30;;;11.50;69.70;;;;;;5046173;28;20127;-70
2022/05/15 04:55:07;;;;;;;6.13;2.45;;;11.50;69.70;;;;;;5043272;28;20070;-71
2022/05/15 04:57:32;;;;;;;5.40;2.67;;;11.60;69.80;;;;;;5059216;28;20864;-70
2022/05/15 04:59:58;;;;;;;3.55;2.40;;;11.60;69.80;;;;;;5056404;28;20036;-71
2022/05/15 05:02:23;;;;;;;3.90;2.63;;;11.60;69.90;;;;;;5042890;28;20123;-74
2022/05/15 05:04:49;;;;;;;4.82;2.70;;;11.60;70.00;;;;;;5042576;28;20048;-72
2022/05/15 05:07:14;;;;;;;5.35;3.13;;;11.70;70.00;;;;;;5056796;28;20040;-71
2022/05/15 05:09:40;;;;;;;4.95;2.60;;;11.70;70.10;;;;;;5048392;28;20040;-71
2022/05/15 05:12:06;;;;;;;4.22;2.08;;;11.70;70.10;;;;;;5040766;28;20036;-70
2022/05/15 05:14:32;;;;;;;2.30;2.08;;;11.80;70.00;;;;;;5041753;28;20659;-71
2022/05/15 05:16:57;;;;;;;3.05;2.60;;;11.80;70.00;;;;;;5038747;28;20135;-71
2022/05/15 05:19:23;;;;;;;3.95;2.58;;;11.80;69.90;;;;;;5074239;28;20306;-71
2022/05/15 05:21:48;;;;;;;3.92;2.65;;;11.90;69.90;;;;;;5057799;28;20028;-71
2022/05/15 05:24:14;;;;;;;5.55;2.63;;;11.90;69.80;;;;;;5028487;28;20035;-71
2022/05/15 05:26:39;;;;;;;5.07;2.63;;;12.00;69.90;;;;;;5039991;28;20093;-72
2022/05/15 05:29:05;;;;;;;6.53;3.20;;;12.10;70.10;;;;;;5046013;28;20097;-67
2022/05/15 05:31:31;;;;;;;6.00;2.60;;;12.10;70.10;;;;;;5034654;28;20041;-71
2022/05/15 05:33:56;;;;;;;6.07;3.28;;;12.10;70.00;;;;;;5027378;28;20452;-71
2022/05/15 05:36:22;;;;;;;3.17;2.50;;;12.20;70.10;;;;;;5053584;28;20033;-70
2022/05/15 05:38:47;;;;;;;6.85;3.10;;;12.20;70.10;;;;;;5030092;28;20032;-70
2022/05/15 05:41:13;;;;;;;7.05;3.20;;;12.30;70.10;;;;;;5049429;28;20036;-70
2022/05/15 05:43:38;;;;;;;6.80;3.25;;;12.40;70.20;;;;;;5048273;28;20044;-70
2022/05/15 05:46:04;;;;;;;5.25;3.13;;;12.40;70.10;;;;;;5032770;28;20060;-71
2022/05/15 05:48:30;;;;;;;8.00;3.65;;;12.50;70.10;;;;;;5049512;28;20040;-72
2022/05/15 05:50:55;;;;;;;7.03;3.70;;;12.60;70.00;;;;;;5050150;28;20060;-72
2022/05/15 05:53:21;;;;;;;7.97;3.30;;;12.60;70.00;;;;;;5017811;28;20529;-71
2022/05/15 05:55:46;;;;;;;8.00;3.40;;;12.70;70.10;;;;;;5053523;28;20071;-71
2022/05/15 05:58:12;;;;;;;5.03;2.80;;;12.80;70.10;;;;;;5055999;28;20036;-70
2022/05/15 06:00:38;;;;;;;10.80;3.70;;;12.90;69.90;;;;;;5049790;28;20056;-71
2022/05/15 06:05:48;;;;;;;10.07;3.90;;;13.00;69.50;;;;;;5050582;28;20060;-71
2022/05/15 06:08:14;;;;;;;6.88;3.25;;;13.10;69.40;;;;;;5045098;28;20037;-71
2022/05/15 06:10:40;;;;;;;9.48;3.40;;;13.20;69.50;;;;;;5038226;28;20071;-72
2022/05/15 06:13:06;;;;;;;7.13;3.70;;;13.40;69.50;;;;;;5034682;28;20067;-71
2022/05/15 06:15:32;;;;;;;8.15;3.30;;;13.50;69.40;;;;;;5052684;28;20102;-70
2022/05/15 06:17:59;;;;;;;9.20;3.30;;;13.60;69.30;;;;;;5026930;28;20044;-70
2022/05/15 06:20:24;;;;;;;5.75;2.90;;;13.70;69.10;;;;;;5034659;28;20040;-70
2022/05/15 06:22:50;;;;;;;5.55;3.10;;;13.90;68.90;;;;;;5050807;28;20458;-71
2022/05/15 06:25:15;;;;;;;4.53;2.85;;;14.00;68.70;;;;;;5039326;28;20040;-71
2022/05/15 06:27:41;;;;;;;6.15;2.85;;;14.10;68.40;;;;;;5056160;28;20060;-70
2022/05/15 06:30:08;;;;;;;7.47;3.15;;;14.30;68.20;;;;;;5038838;28;20123;-71
2022/05/15 06:32:34;;;;;;;5.50;3.40;;;14.40;68.00;;;;;;5029559;28;20029;-71
2022/05/15 06:34:59;;;;;;;9.85;3.10;;;14.60;68.00;;;;;;5050933;28;20131;-70
2022/05/15 06:37:25;;;;;;;8.75;3.15;;;14.70;67.90;;;;;;5052847;28;20132;-71
2022/05/15 06:39:51;;;;;;;8.45;3.45;;;14.90;67.60;;;;;;5054182;28;20036;-72
2022/05/15 06:42:16;;;;;;;6.65;2.60;;;15.10;67.40;;;;;;5051072;28;20390;-74
2022/05/15 06:44:42;;;;;;;6.55;3.35;;;15.20;67.00;;;;;;5049057;28;20550;-71
2022/05/15 06:47:07;;;;;;;8.80;3.17;;;15.40;66.80;;;;;;5038964;28;20103;-72
2022/05/15 06:49:33;;;;;;;5.15;2.90;;;15.50;66.50;;;;;;5046485;28;20033;-71
2022/05/15 06:51:58;;;;;;;5.30;2.80;;;15.70;66.40;;;;;;5048488;28;20043;-72
2022/05/15 06:54:24;;;;;;;4.97;2.95;;;15.90;66.20;;;;;;5031746;28;20035;-71
2022/05/15 06:59:34;;;;;;;8.73;3.50;;;16.20;65.50;;;;;;5035046;28;20109;-72
2022/05/15 07:02:00;;;;;;;9.52;2.72;;;16.40;65.20;;;;;;5050221;28;20035;-71
2022/05/15 07:04:26;;;;;;;8.15;3.22;;;16.50;64.90;;;;;;5036064;28;20044;-71
2022/05/15 07:06:51;;;;;;;6.93;2.83;;;16.70;64.60;;;;;;5047042;28;20482;-70
2022/05/15 07:09:17;;;;;;;10.25;3.30;;;16.80;64.40;;;;;;5032610;28;20518;-71
2022/05/15 07:11:42;;;;;;;7.72;2.70;;;17.00;64.30;;;;;;5061172;28;20934;-71
2022/05/15 07:14:09;;;;;;;5.95;2.60;;;17.10;63.90;;;;;;5032510;28;20474;-71
2022/05/15 07:16:35;;;;;;;8.13;2.90;;;17.30;63.60;;;;;;5055992;28;20421;-71
2022/05/15 07:19:00;;;;;;;7.70;3.50;;;17.50;63.30;;;;;;5053044;28;20757;-71
2022/05/15 07:21:26;;;;;;;9.82;2.83;;;17.70;63.00;;;;;;5054176;28;20517;-71
2022/05/15 07:23:51;;;;;;;6.78;3.05;;;17.90;62.60;;;;;;5059319;28;20040;-71
2022/05/15 07:26:17;;;;;;;7.28;2.03;;;18.00;62.30;;;;;;5055702;28;20091;-71
2022/05/15 07:28:43;;;;;;;6.70;3.15;;;18.20;61.90;;;;;;5047382;28;20530;-72
2022/05/15 07:31:09;;;;;;;7.25;2.55;;;18.40;61.50;;;;;;5045361;28;20024;-70
2022/05/15 07:33:34;;;;;;;8.38;2.75;;;18.50;61.10;;;;;;5055249;28;20518;-71
2022/05/15 07:36:00;;;;;;;6.70;3.45;;;18.80;60.80;;;;;;5057324;28;20033;-71
2022/05/15 07:38:25;;;;;;;9.25;3.17;;;18.90;60.30;;;;;;5047383;28;20494;-71
2022/05/15 07:40:52;;;;;;;8.30;3.25;;;19.10;60.00;;;;;;5042453;28;20094;-71
2022/05/15 07:43:17;;;;;;;7.68;3.38;;;19.20;60.50;;;;;;5041996;28;20164;-72
2022/05/15 07:45:43;;;;;;;12.98;4.55;;;19.30;59.40;;;;;;5048398;28;20584;-71
2022/05/15 07:48:08;;;;;;;11.15;3.35;;;19.50;59.10;;;;;;5035710;28;20064;-71
2022/05/15 07:50:34;;;;;;;8.43;3.33;;;19.70;58.70;;;;;;5058413;28;20119;-71
2022/05/15 07:53:00;;;;;;;8.52;2.78;;;19.80;58.30;;;;;;5056364;28;20869;-73
2022/05/15 07:55:25;;;;;;;8.32;2.45;;;20.10;58.20;;;;;;5041249;28;20140;-72
2022/05/15 07:57:51;;;;;;;7.20;2.20;;;20.30;57.80;;;;;;5038486;28;20155;-71
2022/05/15 08:00:17;;;;;;;8.93;2.65;;;20.40;57.40;;;;;;5028312;28;20032;-69
2022/05/15 08:02:43;;;;;;;4.45;2.42;;;20.60;57.10;;;;;;5040237;28;20044;-74
2022/05/15 08:08:01;;;;;;;8.40;3.22;;;20.90;56.30;;;;;;5051462;28;20044;-71
2022/05/15 08:10:27;;;;;;;4.75;2.33;;;21.10;56.00;;;;;;5047002;28;20025;-73
2022/05/15 08:12:53;;;;;;;7.07;2.08;;;21.30;55.70;;;;;;5036594;28;20033;-72
2022/05/15 08:15:18;;;;;;;10.27;2.60;;;21.50;55.60;;;;;;5042313;28;20039;-71
2022/05/15 08:17:44;;;;;;;9.48;2.70;;;21.60;55.00;;;;;;5029811;28;20044;-73
2022/05/15 08:25:39;;;;;;;5.07;2.47;;;22.10;54.20;;;;;;5057045;28;20077;-71
2022/05/15 08:28:05;;;;;;;6.25;2.25;;;22.30;53.90;;;;;;5036555;28;20121;-71
2022/05/15 08:30:31;;;;;;;6.97;2.58;;;22.50;53.60;;;;;;5047940;28;20064;-71
2022/05/15 08:32:57;;;;;;;14.43;2.60;;;22.70;53.20;;;;;;5014651;28;20032;-72
2022/05/15 08:35:22;;;;;;;6.10;2.20;;;22.80;52.80;;;;;;5044141;28;20105;-72
2022/05/15 08:37:48;;;;;;;9.35;2.30;;;23.00;52.50;;;;;;5059290;28;20060;-71
2022/05/15 08:40:13;;;;;;;6.47;2.75;;;23.30;52.20;;;;;;5039305;28;20028;-71
2022/05/15 08:42:49;;;;;;;6.15;2.10;;;23.50;51.70;;;;;;5043760;28;20059;-71
2022/05/15 08:45:17;;;;;;;5.25;2.30;;;23.70;51.00;;;;;;5031642;28;20043;-71
2022/05/15 08:47:45;;;;;;;5.63;1.80;;;23.90;50.90;;;;;;5009496;28;20522;-72
2022/05/15 08:50:12;;;;;;;4.88;1.90;;;24.10;50.50;;;;;;5058839;28;20509;-72
2022/05/15 08:52:54;;;;;;;4.32;2.38;;;24.30;50.10;;;;;;5043202;28;20052;-71
2022/05/15 08:55:42;;;;;;;12.20;2.72;;;24.50;49.60;;;;;;5026675;28;20111;-71
2022/05/15 08:58:13;;;;;;;7.25;2.22;;;24.70;48.60;;;;;;5045738;28;20041;-71
2022/05/15 09:00:43;;;;;;;8.55;2.28;;;24.90;48.90;;;;;;5063090;28;20058;-72
2022/05/15 09:03:22;;;;;;;6.25;1.90;;;25.00;48.60;;;;;;5043624;28;20051;-73
2022/05/15 09:06:03;;;;;;;7.32;2.20;;;25.20;48.10;;;;;;5030790;28;20032;-71
2022/05/15 09:08:46;;;;;;;8.30;2.40;;;25.40;47.80;;;;;;5019694;28;20553;-72
2022/05/15 09:11:12;;;;;;;4.80;2.10;;;25.60;47.70;;;;;;5069006;28;20032;-72
2022/05/15 09:13:46;;;;;;;4.45;2.30;;;25.90;47.50;;;;;;5038078;28;20028;-71
2022/05/15 09:16:28;;;;;;;4.57;2.10;;;26.10;47.10;;;;;;5051818;28;20034;-72
2022/05/15 09:19:03;;;;;;;5.03;2.00;;;26.30;46.00;;;;;;5021857;28;20036;-72
2022/05/15 09:21:29;;;;;;;6.55;2.53;;;26.50;46.10;;;;;;5047577;28;20521;-72
2022/05/15 09:23:55;;;;;;;4.70;1.92;;;26.60;45.90;;;;;;5044959;28;20047;-72
2022/05/15 09:26:27;;;;;;;8.20;3.88;;;26.80;45.70;;;;;;5048864;28;20036;-71
2022/05/15 09:28:55;;;;;;;7.63;2.83;;;26.90;45.30;;;;;;5075757;28;20234;-72
2022/05/15 09:31:35;;;;;;;7.28;2.63;;;27.10;45.20;;;;;;5049478;28;20044;-73
2022/05/15 09:34:12;;;;;;;10.45;4.00;;;27.30;45.00;;;;;;5039739;28;20075;-72
2022/05/15 09:36:42;;;;;;;8.32;2.83;;;27.40;44.40;;;;;;5048516;28;20119;-72
2022/05/15 09:39:23;;;;;;;5.38;1.85;;;27.60;44.30;;;;;;5045231;28;20059;-73
2022/05/15 09:45:07;;;;;;;3.55;2.10;;;28.00;43.60;;;;;;5059736;28;20093;-73
2022/05/15 09:47:44;;;;;;;3.22;1.88;;;28.30;43.40;;;;;;5060488;28;20088;-70
2022/05/15 09:50:30;;;;;;;6.65;2.22;;;28.50;43.10;;;;;;5059672;28;20107;-71
2022/05/15 09:52:56;;;;;;;7.97;2.25;;;28.70;43.20;;;;;;5038049;28;20383;-72
2022/05/15 09:55:25;;;;;;;3.47;1.83;;;28.90;42.80;;;;;;5035555;28;20040;-72
2022/05/15 09:57:57;;;;;;;2.70;1.85;;;29.00;42.40;;;;;;5047805;28;20164;-72
2022/05/15 10:00:24;;;;;;;6.13;2.33;;;29.20;42.10;;;;;;5053942;28;21747;-72
2022/05/15 10:02:51;;;;;;;4.70;2.03;;;29.30;41.90;;;;;;5045232;28;20044;-73
2022/05/15 10:05:26;;;;;;;5.65;2.00;;;29.50;41.70;;;;;;5061479;28;20186;-74
2022/05/15 10:08:22;;;;;;;5.25;1.70;;;29.70;41.10;;;;;;5039958;28;20672;-73
2022/05/15 10:10:56;;;;;;;5.38;1.75;;;29.90;40.30;;;;;;5062512;28;20078;-73
2022/05/15 10:13:39;;;;;;;4.15;1.73;;;30.20;40.30;;;;;;5074914;28;20035;-72
2022/05/15 10:16:14;;;;;;;4.65;1.70;;;30.40;39.70;;;;;;5041209;28;20036;-74
2022/05/15 10:18:49;;;;;;;4.28;1.83;;;30.60;40.00;;;;;;5061198;28;20525;-73
2022/05/15 10:21:14;;;;;;;3.85;1.73;;;30.70;39.70;;;;;;5057001;28;20067;-73
2022/05/15 10:23:53;;;;;;;3.83;1.98;;;30.90;39.50;;;;;;5052783;28;20494;-72
2022/05/15 10:26:21;;;;;;;2.40;1.52;;;31.00;38.40;;;;;;5028918;28;20487;-72
2022/05/15 10:28:54;;;;;;;4.90;1.52;;;31.20;38.80;;;;;;5056645;28;20036;-74
2022/05/15 10:31:23;;;;;;;4.53;1.48;;;31.40;38.20;;;;;;5040181;28;20028;-74
2022/05/15 10:34:00;;;;;;;3.15;1.83;;;31.50;37.90;;;;;;5051266;28;20127;-73
2022/05/15 10:36:32;;;;;;;3.72;1.58;;;31.60;37.00;;;;;;5044335;28;20282;-73
2022/05/15 10:39:20;;;;;;;2.42;1.20;;;31.70;37.50;;;;;;5058587;28;20024;-75
2022/05/15 10:42:01;;;;;;;3.45;1.63;;;31.80;36.60;;;;;;5033043;28;20044;-71
2022/05/15 10:44:39;;;;;;;;;;;31.90;36.60;;;;;;5054501;28;20036;-73
2022/05/15 10:47:29;;;;;;;4.90;1.67;;;32.10;37.10;;;;;;5071190;28;20001;-73
2022/05/15 10:49:54;;;;;;;3.28;1.20;;;32.20;35.90;;;;;;5055841;28;20039;-74
2022/05/15 10:52:51;;;;;;;4.20;1.48;;;32.30;37.50;;;;;;5068375;28;20040;-72
2022/05/15 10:58:30;;;;;;;6.00;2.13;;;32.50;35.60;;;;;;5047406;28;20066;-74
2022/05/15 11:01:10;;;;;;;5.65;1.30;;;32.60;35.70;;;;;;5068704;28;20044;-75
2022/05/15 11:03:59;;;;;;;4.18;1.52;;;32.60;35.10;;;;;;5079315;28;20044;-73
2022/05/15 11:06:39;;;;;;;3.10;1.52;;;32.60;34.10;;;;;;5052827;28;20044;-74
2022/05/15 11:09:30;;;;;;;4.65;1.27;;;32.60;34.90;;;;;;5054635;28;20044;-71
2022/05/15 11:12:08;;;;;;;3.45;1.70;;;32.60;34.50;;;;;;5014145;28;20033;-71
2022/05/15 11:14:46;;;;;;;4.10;1.70;;;32.60;34.10;;;;;;5027783;28;20522;-72
2022/05/15 11:17:27;;;;;;;6.28;1.67;;;32.60;33.90;;;;;;5054210;28;20043;-73
2022/05/15 11:19:53;;;;;;;3.05;1.13;;;32.60;33.60;;;;;;5044572;28;20044;-73
2022/05/15 11:22:36;;;;;;;5.32;1.33;;;32.60;34.20;;;;;;5057310;28;20411;-72
2022/05/15 11:25:10;;;;;;;2.22;1.20;;;32.70;33.80;;;;;;5026959;28;20085;-73
2022/05/15 11:27:51;;;;;;;6.80;1.70;;;32.70;33.50;;;;;;5044820;28;20032;-72
2022/05/15 11:30:24;;;;;;;;;;;32.80;33.00;;;;;;5054786;28;20734;-72
2022/05/15 11:32:53;;;;;;;5.63;1.35;;;33.00;33.40;;;;;;5038659;28;19946;-74
2022/05/15 11:35:18;;;;;;;2.42;1.13;;;33.10;33.30;;;;;;5071438;28;20028;-73
2022/05/15 11:37:56;;;;;;;3.92;1.40;;;33.10;33.00;;;;;;5060590;28;20046;-72
2022/05/15 11:40:35;;;;;;;3.05;1.23;;;33.20;32.60;;;;;;5062646;28;20037;-72
2022/05/15 11:43:33;;;;;;;2.60;1.30;;;33.30;32.00;;;;;;5058059;28;20079;-72
2022/05/15 11:46:04;;;;;;;4.07;1.48;;;33.30;31.30;;;;;;5060703;28;20032;-72
2022/05/15 11:48:50;;;;;;;3.00;1.60;;;33.30;32.00;;;;;;5050526;28;20097;-72
2022/05/15 11:51:16;;;;;;;2.55;1.42;;;33.30;31.10;;;;;;5045556;28;20039;-72
2022/05/15 11:54:04;;;;;;;3.22;1.27;;;33.40;31.80;;;;;;5068899;28;20028;-72
2022/05/15 11:56:51;;;;;;;4.63;1.05;;;33.40;30.90;;;;;;5065193;28;20063;-73
2022/05/15 11:59:26;;;;;;;3.72;1.38;;;33.60;30.70;;;;;;5070935;28;20070;-73
2022/05/15 12:01:53;;;;;;;4.03;1.30;;;33.60;30.80;;;;;;5059287;28;20036;-72
2022/05/15 12:04:20;;;;;;;3.08;1.10;;;33.70;31.20;;;;;;5053540;28;20115;-72
2022/05/15 12:06:47;;;;;;;5.40;1.40;;;33.90;30.90;;;;;;5043810;28;20108;-74
2022/05/15 12:09:19;;;;;;;4.57;1.30;;;34.00;30.60;;;;;;5060854;28;20033;-72
2022/05/15 12:11:45;;;;;;;4.20;1.27;;;34.20;30.30;;;;;;5062928;28;20040;-71
2022/05/15 12:14:33;;;;;;;5.85;1.30;;;34.30;30.40;;;;;;5052796;28;20113;-72
2022/05/15 12:17:18;;;;;;;3.05;1.17;;;34.50;29.80;;;;;;5062180;28;20051;-72
2022/05/15 12:19:44;;;;;;;2.75;1.38;;;34.50;29.60;;;;;;5046709;28;20040;-72
2022/05/15 12:22:11;;;;;;;3.20;1.40;;;34.70;30.20;;;;;;5043561;28;20040;-72
2022/05/15 12:24:38;;;;;;;3.30;1.30;;;34.70;30.00;;;;;;5055359;28;20696;-72
2022/05/15 12:27:09;;;;;;;4.55;1.27;;;34.80;30.00;;;;;;5033294;28;20526;-72
2022/05/15 12:29:55;;;;;;;6.55;1.63;;;35.00;29.80;;;;;;5062358;28;20071;-72
2022/05/15 12:32:53;;;;;;;3.50;1.38;;;35.10;28.90;;;;;;5080431;28;20043;-72
2022/05/15 12:35:22;;;;;;;4.03;1.25;;;35.10;29.10;;;;;;5012869;28;20048;-72
2022/05/15 12:37:53;;;;;;;2.58;1.10;;;35.10;29.50;;;;;;5055155;28;20033;-73
2022/05/15 12:40:24;;;;;;;4.32;0.88;;;35.20;29.50;;;;;;5043177;28;20040;-73
2022/05/15 12:42:50;;;;;;;5.68;1.30;;;35.30;29.30;;;;;;5035622;28;20036;-73
2022/05/15 12:45:19;;;;;;;2.58;1.50;;;35.40;29.30;;;;;;5044857;28;20180;-72
2022/05/15 12:47:58;;;;;;;3.53;1.35;;;35.50;29.20;;;;;;5055569;28;20044;-72
2022/05/15 12:50:24;;;;;;;2.03;1.40;;;35.50;29.00;;;;;;5047341;28;20037;-72
2022/05/15 12:52:57;;;;;;;4.20;1.50;;;35.60;29.20;;;;;;5038725;28;20043;-72
2022/05/15 12:55:34;;;;;;;3.90;1.42;;;35.70;28.80;;;;;;5043600;28;20028;-72
2022/05/15 12:58:00;;;;;;;2.97;1.30;;;35.80;28.70;;;;;;5043002;28;20035;-73
2022/05/15 13:00:32;;;;;;;4.63;1.67;;;35.90;28.70;;;;;;5059691;28;20097;-73
2022/05/15 13:02:59;;;;;;;4.50;1.30;;;35.90;28.70;;;;;;5058603;28;20032;-72
2022/05/15 13:05:35;;;;;;;6.70;1.35;;;35.80;28.50;;;;;;5015240;28;20115;-73
2022/05/15 13:08:05;;;;;;;3.78;1.27;;;35.90;28.10;;;;;;5062013;28;20075;-73
2022/05/15 13:10:32;;;;;;;;;;;35.90;28.40;;;;;;5038267;28;20039;-72
2022/05/15 13:13:12;;;;;;;2.42;1.10;;;36.10;28.70;;;;;;5030373;28;20591;-73
2022/05/15 13:15:37;;;;;;;4.25;1.25;;;36.20;28.70;;;;;;5056923;28;20045;-73
2022/05/15 13:18:08;;;;;;;4.05;1.52;;;36.30;28.70;;;;;;5038441;28;20028;-72
2022/05/15 13:20:36;;;;;;;4.05;1.30;;;36.30;28.30;;;;;;5048745;28;20040;-72